createdAt,value
2023-02-04T04:30:36.152Z,3.80
2023-02-04T04:41:11.700Z,3.78
2023-02-04T04:51:46.886Z,3.33
2023-02-04T05:02:22.815Z,3.47
2023-02-04T05:12:58.733Z,4.57
2023-02-04T05:23:34.611Z,3.75
2023-02-04T05:34:10.348Z,4.45
2023-02-04T05:44:46.141Z,3.80
2023-02-04T05:55:21.605Z,4.13
2023-02-04T06:05:57.626Z,3.97
2023-02-04T06:16:33.689Z,4.93
2023-02-04T06:27:09.381Z,3.65
2023-02-04T06:37:44.794Z,9.23
2023-02-04T06:48:20.589Z,3.15
2023-02-04T06:58:56.115Z,5.43
2023-02-04T07:09:32.128Z,3.63
2023-02-04T07:20:10.737Z,8.15
2023-02-04T07:30:46.612Z,4.63
2023-02-04T07:41:22.014Z,4.13
2023-02-04T07:51:57.860Z,7.53
2023-02-04T08:02:33.665Z,5.18
2023-02-04T08:13:09.347Z,5.13
2023-02-04T08:23:44.743Z,12.93
2023-02-04T08:34:20.600Z,5.20
2023-02-04T08:44:56.231Z,5.00
2023-02-04T08:55:32.085Z,6.95
2023-02-04T09:06:08.561Z,4.63
2023-02-04T09:16:44.312Z,3.83
2023-02-04T09:27:19.891Z,4.25
2023-02-04T09:37:55.777Z,5.38
2023-02-04T09:48:32.385Z,3.70
2023-02-04T09:59:20.126Z,2.40
2023-02-04T10:09:56.136Z,2.53
2023-02-04T10:20:31.875Z,2.60
2023-02-04T10:31:33.044Z,3.45
2023-02-04T10:42:24.535Z,2.78
2023-02-04T10:53:19.856Z,3.00
2023-02-04T11:03:55.714Z,2.80
2023-02-04T11:14:31.727Z,2.92
2023-02-04T11:25:34.736Z,3.17
2023-02-04T11:36:13.327Z,4.00
2023-02-04T11:46:55.441Z,4.72
2023-02-04T11:57:39.267Z,3.17
2023-02-04T12:08:23.887Z,2.65
2023-02-04T12:18:59.692Z,2.95
2023-02-04T12:29:35.100Z,2.22
2023-02-04T12:40:16.348Z,2.85
2023-02-04T12:50:52.059Z,2.65
2023-02-04T13:01:27.723Z,2.22
2023-02-04T13:12:03.608Z,2.42
2023-02-04T13:22:39.125Z,2.20
2023-02-04T13:33:16.618Z,2.55
2023-02-04T13:43:52.523Z,2.10
2023-02-04T13:54:28.206Z,2.63
2023-02-04T14:05:04.351Z,2.35
2023-02-04T14:15:41.541Z,1.90
2023-02-04T14:26:16.974Z,2.42
2023-02-04T14:36:52.346Z,2.50
2023-02-04T14:47:28.089Z,2.80
2023-02-04T14:58:03.501Z,2.70
2023-02-04T15:08:39.311Z,2.35
2023-02-04T15:19:16.929Z,2.70
2023-02-04T15:29:52.972Z,2.00
2023-02-04T15:40:29.908Z,2.30
2023-02-04T15:51:05.854Z,1.98
2023-02-04T16:01:41.640Z,2.55
2023-02-04T16:12:17.540Z,3.00
2023-02-04T16:22:53.008Z,2.55
2023-02-04T16:33:28.814Z,3.78
2023-02-04T16:44:04.556Z,4.55
2023-02-04T16:54:40.311Z,4.03
2023-02-04T17:05:16.351Z,3.40
2023-02-04T17:15:52.138Z,3.13
2023-02-04T17:26:28.007Z,5.45
2023-02-04T17:37:03.733Z,3.50
2023-02-04T17:47:40.212Z,4.72
2023-02-04T17:58:20.788Z,4.15
2023-02-04T18:09:01.487Z,3.40
2023-02-04T18:19:40.378Z,2.92
2023-02-04T18:30:22.091Z,3.47
2023-02-04T18:41:17.796Z,4.10
2023-02-04T18:51:53.905Z,3.00
2023-02-04T19:02:36.292Z,2.75
2023-02-04T19:13:20.577Z,3.42
2023-02-04T19:24:12.046Z,3.17
2023-02-04T19:34:47.960Z,3.58
2023-02-04T19:45:26.103Z,4.05
2023-02-04T19:56:01.362Z,4.53
2023-02-04T20:06:36.952Z,3.75
2023-02-04T20:17:28.306Z,3.90
2023-02-04T20:28:17.716Z,5.50
2023-02-04T20:49:40.644Z,7.70
2023-02-04T21:00:28.891Z,7.22
2023-02-04T21:11:05.493Z,5.63
2023-02-04T21:21:41.448Z,7.95
2023-02-04T21:32:18.626Z,9.75
2023-02-04T21:42:54.476Z,9.02
2023-02-04T21:53:30.194Z,8.55
2023-02-04T22:04:05.804Z,9.40
2023-02-04T22:14:59.538Z,12.15
2023-02-04T22:25:35.184Z,7.03
